sensor_id;sensor_type;location;lat;lon;timestamp;pressure;altitude;pressure_sealevel;temperature;humidity
7990;BME280;4040;42.848;23.034;2023-07-28T00:03:28;95015.44;;;10.65;100.00
7990;BME280;4040;42.848;23.034;2023-07-28T00:13:41;94999.28;;;10.65;100.00
7990;BME280;4040;42.848;23.034;2023-07-28T00:19:30;94995.41;;;10.66;100.00
7990;BME280;4040;42.848;23.034;2023-07-28T00:25:19;95000.75;;;10.73;100.00
7990;BME280;4040;42.848;23.034;2023-07-28T00:31:10;94998.97;;;10.53;100.00
7990;BME280;4040;42.848;23.034;2023-07-28T00:36:59;95004.00;;;10.47;100.00
7990;BME280;4040;42.848;23.034;2023-07-28T00:42:47;95004.84;;;10.41;100.00
7990;BME280;4040;42.848;23.034;2023-07-28T00:48:38;95003.41;;;10.22;100.00
7990;BME280;4040;42.848;23.034;2023-07-28T00:54:27;95004.09;;;10.40;100.00
7990;BME280;4040;42.848;23.034;2023-07-28T01:00:16;95006.56;;;10.68;100.00
7990;BME280;4040;42.848;23.034;2023-07-28T01:06:14;95013.38;;;10.25;100.00
7990;BME280;4040;42.848;23.034;2023-07-28T01:16:28;95001.19;;;10.10;100.00
7990;BME280;4040;42.848;23.034;2023-07-28T01:22:33;94975.50;;;9.92;100.00
7990;BME280;4040;42.848;23.034;2023-07-28T01:28:30;95005.84;;;10.03;100.00
7990;BME280;4040;42.848;23.034;2023-07-28T01:34:18;94989.28;;;10.04;100.00
7990;BME280;4040;42.848;23.034;2023-07-28T01:40:08;95007.34;;;10.07;100.00
7990;BME280;4040;42.848;23.034;2023-07-28T01:45:58;95001.59;;;9.98;100.00
7990;BME280;4040;42.848;23.034;2023-07-28T01:51:46;94993.31;;;9.62;100.00
7990;BME280;4040;42.848;23.034;2023-07-28T01:57:38;95004.97;;;9.20;100.00
7990;BME280;4040;42.848;23.034;2023-07-28T02:03:29;95003.44;;;9.19;100.00
7990;BME280;4040;42.848;23.034;2023-07-28T02:09:17;95002.31;;;8.89;100.00
7990;BME280;4040;42.848;23.034;2023-07-28T02:19:29;95013.81;;;8.58;100.00
7990;BME280;4040;42.848;23.034;2023-07-28T02:25:18;95017.66;;;8.64;100.00
7990;BME280;4040;42.848;23.034;2023-07-28T02:31:07;95016.13;;;8.59;100.00
7990;BME280;4040;42.848;23.034;2023-07-28T02:36:57;95010.00;;;8.66;100.00
7990;BME280;4040;42.848;23.034;2023-07-28T02:42:45;95008.44;;;8.79;100.00
7990;BME280;4040;42.848;23.034;2023-07-28T02:48:34;95005.38;;;8.91;100.00
7990;BME280;4040;42.848;23.034;2023-07-28T02:54:24;95006.13;;;9.02;100.00
7990;BME280;4040;42.848;23.034;2023-07-28T03:00:13;95009.97;;;8.87;100.00
7990;BME280;4040;42.848;23.034;2023-07-28T03:06:02;95011.53;;;8.67;100.00
7990;BME280;4040;42.848;23.034;2023-07-28T03:11:52;95016.13;;;8.77;100.00
7990;BME280;4040;42.848;23.034;2023-07-28T03:22:03;95024.19;;;9.01;100.00
7990;BME280;4040;42.848;23.034;2023-07-28T03:27:53;95039.91;;;9.03;100.00
7990;BME280;4040;42.848;23.034;2023-07-28T03:33:42;95026.88;;;9.01;100.00
7990;BME280;4040;42.848;23.034;2023-07-28T03:36:09;95040.66;;;9.03;100.00
7990;BME280;4040;42.848;23.034;2023-07-28T03:41:58;95039.88;;;9.10;100.00
7990;BME280;4040;42.848;23.034;2023-07-28T03:47:48;95032.22;;;9.12;100.00
7990;BME280;4040;42.848;23.034;2023-07-28T03:53:36;95044.50;;;9.20;100.00
7990;BME280;4040;42.848;23.034;2023-07-28T03:59:25;95044.47;;;9.30;100.00
7990;BME280;4040;42.848;23.034;2023-07-28T04:05:15;95039.06;;;9.41;100.00
7990;BME280;4040;42.848;23.034;2023-07-28T04:11:04;95022.13;;;9.58;100.00
7990;BME280;4040;42.848;23.034;2023-07-28T04:16:53;95036.94;;;10.00;100.00
7990;BME280;4040;42.848;23.034;2023-07-28T04:19:20;95036.22;;;9.93;100.00
7990;BME280;4040;42.848;23.034;2023-07-28T04:25:10;95042.72;;;10.09;100.00
7990;BME280;4040;42.848;23.034;2023-07-28T04:30:59;95041.09;;;10.26;100.00
7990;BME280;4040;42.848;23.034;2023-07-28T04:36:48;95041.56;;;10.68;100.00
7990;BME280;4040;42.848;23.034;2023-07-28T04:42:38;95049.00;;;11.49;100.00
7990;BME280;4040;42.848;23.034;2023-07-28T04:48:26;95038.88;;;13.91;100.00
7990;BME280;4040;42.848;23.034;2023-07-28T04:54:15;95027.97;;;15.64;100.00
7990;BME280;4040;42.848;23.034;2023-07-28T05:00:07;95026.16;;;17.77;100.00
7990;BME280;4040;42.848;23.034;2023-07-28T05:05:55;95015.66;;;18.83;100.00
7990;BME280;4040;42.848;23.034;2023-07-28T05:11:44;95015.38;;;19.29;90.83
7990;BME280;4040;42.848;23.034;2023-07-28T05:17:34;95011.38;;;19.88;86.66
7990;BME280;4040;42.848;23.034;2023-07-28T05:23:23;95001.81;;;21.20;78.49
7990;BME280;4040;42.848;23.034;2023-07-28T05:29:12;95014.91;;;22.91;68.58
7990;BME280;4040;42.848;23.034;2023-07-28T05:35:02;95001.75;;;24.75;55.83
7990;BME280;4040;42.848;23.034;2023-07-28T05:40:56;94990.19;;;24.96;50.79
7990;BME280;4040;42.848;23.034;2023-07-28T05:46:45;94988.13;;;24.91;54.04
7990;BME280;4040;42.848;23.034;2023-07-28T05:52:37;94982.38;;;26.37;46.61
7990;BME280;4040;42.848;23.034;2023-07-28T05:58:25;94975.53;;;26.11;44.93
7990;BME280;4040;42.848;23.034;2023-07-28T06:04:14;94987.19;;;26.37;45.29
7990;BME280;4040;42.848;23.034;2023-07-28T06:10:06;94978.75;;;28.58;44.75
7990;BME280;4040;42.848;23.034;2023-07-28T06:15:55;94977.59;;;29.90;39.48
7990;BME280;4040;42.848;23.034;2023-07-28T06:21:45;94967.47;;;30.72;36.15
7990;BME280;4040;42.848;23.034;2023-07-28T06:27:34;94968.97;;;30.36;36.11
7990;BME280;4040;42.848;23.034;2023-07-28T06:33:24;94966.22;;;29.93;37.97
7990;BME280;4040;42.848;23.034;2023-07-28T06:39:13;94964.28;;;30.07;39.46
7990;BME280;4040;42.848;23.034;2023-07-28T06:45:04;94958.16;;;30.51;38.45
7990;BME280;4040;42.848;23.034;2023-07-28T06:50:52;94959.72;;;31.15;35.31
7990;BME280;4040;42.848;23.034;2023-07-28T06:56:41;94952.50;;;32.03;33.47
7990;BME280;4040;42.848;23.034;2023-07-28T07:02:31;94958.34;;;31.34;36.84
7990;BME280;4040;42.848;23.034;2023-07-28T07:08:19;94956.78;;;32.17;35.10
7990;BME280;4040;42.848;23.034;2023-07-28T07:14:08;94946.69;;;32.39;35.85
7990;BME280;4040;42.848;23.034;2023-07-28T07:24:10;94955.09;;;32.93;33.50
7990;BME280;4040;42.848;23.034;2023-07-28T07:30:00;94961.78;;;33.31;32.70
7990;BME280;4040;42.848;23.034;2023-07-28T07:35:49;94962.56;;;32.98;32.53
7990;BME280;4040;42.848;23.034;2023-07-28T07:41:39;94962.47;;;33.24;31.97
7990;BME280;4040;42.848;23.034;2023-07-28T07:47:28;94959.38;;;33.76;33.50
7990;BME280;4040;42.848;23.034;2023-07-28T07:53:16;94953.81;;;33.63;30.24
7990;BME280;4040;42.848;23.034;2023-07-28T07:59:07;94963.59;;;33.08;33.68
7990;BME280;4040;42.848;23.034;2023-07-28T08:04:55;94970.97;;;35.76;29.21
7990;BME280;4040;42.848;23.034;2023-07-28T08:10:44;94966.81;;;34.95;32.86
7990;BME280;4040;42.848;23.034;2023-07-28T08:16:34;94965.69;;;36.10;26.33
7990;BME280;4040;42.848;23.034;2023-07-28T08:26:44;94951.50;;;34.89;25.97
7990;BME280;4040;42.848;23.034;2023-07-28T08:32:34;94949.59;;;36.26;25.68
7990;BME280;4040;42.848;23.034;2023-07-28T08:38:23;94947.06;;;35.90;26.24
7990;BME280;4040;42.848;23.034;2023-07-28T08:44:12;94952.63;;;36.13;25.20
7990;BME280;4040;42.848;23.034;2023-07-28T08:50:02;94937.97;;;37.99;26.72
7990;BME280;4040;42.848;23.034;2023-07-28T08:55:52;94935.00;;;39.17;23.84
7990;BME280;4040;42.848;23.034;2023-07-28T09:01:41;94926.16;;;38.77;26.41
7990;BME280;4040;42.848;23.034;2023-07-28T09:07:35;94926.47;;;34.83;27.11
7990;BME280;4040;42.848;23.034;2023-07-28T09:13:24;94920.13;;;35.87;25.84
7990;BME280;4040;42.848;23.034;2023-07-28T09:19:14;94898.69;;;36.37;27.91
7990;BME280;4040;42.848;23.034;2023-07-28T09:29:26;94875.81;;;37.29;26.90
7990;BME280;4040;42.848;23.034;2023-07-28T09:35:15;94864.91;;;36.84;26.84
7990;BME280;4040;42.848;23.034;2023-07-28T09:41:04;94869.56;;;39.09;25.34
7990;BME280;4040;42.848;23.034;2023-07-28T09:46:57;94863.69;;;38.02;25.92
7990;BME280;4040;42.848;23.034;2023-07-28T09:52:47;94852.69;;;37.79;24.87
7990;BME280;4040;42.848;23.034;2023-07-28T09:58:38;94848.50;;;37.05;28.79
7990;BME280;4040;42.848;23.034;2023-07-28T10:04:31;94856.91;;;37.71;27.97
7990;BME280;4040;42.848;23.034;2023-07-28T10:10:21;94838.88;;;38.08;26.32
7990;BME280;4040;42.848;23.034;2023-07-28T10:16:10;94838.00;;;38.84;26.01
7990;BME280;4040;42.848;23.034;2023-07-28T10:22:06;94829.97;;;39.07;26.83
7990;BME280;4040;42.848;23.034;2023-07-28T10:32:25;94827.75;;;38.27;27.04
7990;BME280;4040;42.848;23.034;2023-07-28T10:38:33;94813.06;;;38.02;26.43
7990;BME280;4040;42.848;23.034;2023-07-28T10:44:23;94816.97;;;37.14;27.23
7990;BME280;4040;42.848;23.034;2023-07-28T10:50:12;94808.91;;;36.69;28.02
7990;BME280;4040;42.848;23.034;2023-07-28T10:56:03;94793.38;;;36.04;30.00
7990;BME280;4040;42.848;23.034;2023-07-28T11:01:53;94798.63;;;31.97;34.15
7990;BME280;4040;42.848;23.034;2023-07-28T11:07:42;94803.63;;;30.74;36.59
7990;BME280;4040;42.848;23.034;2023-07-28T11:13:32;94779.53;;;30.32;34.66
7990;BME280;4040;42.848;23.034;2023-07-28T11:19:21;94783.19;;;30.08;36.59
7990;BME280;4040;42.848;23.034;2023-07-28T11:25:12;94771.47;;;29.97;37.33
7990;BME280;4040;42.848;23.034;2023-07-28T11:35:24;94752.59;;;29.77;37.70
7990;BME280;4040;42.848;23.034;2023-07-28T11:41:13;94748.72;;;29.48;38.13
7990;BME280;4040;42.848;23.034;2023-07-28T11:47:05;94749.97;;;29.29;36.58
7990;BME280;4040;42.848;23.034;2023-07-28T11:52:57;94752.88;;;28.70;38.27
7990;BME280;4040;42.848;23.034;2023-07-28T11:58:50;94740.91;;;29.47;39.35
7990;BME280;4040;42.848;23.034;2023-07-28T12:04:40;94736.59;;;29.46;38.15
7990;BME280;4040;42.848;23.034;2023-07-28T12:10:32;94739.69;;;29.79;39.88
7990;BME280;4040;42.848;23.034;2023-07-28T12:16:39;94731.22;;;29.72;38.19
7990;BME280;4040;42.848;23.034;2023-07-28T12:22:29;94717.31;;;29.17;37.54
7990;BME280;4040;42.848;23.034;2023-07-28T12:28:21;94715.16;;;29.28;40.29
7990;BME280;4040;42.848;23.034;2023-07-28T12:38:31;94718.53;;;29.21;39.06
7990;BME280;4040;42.848;23.034;2023-07-28T12:44:21;94712.97;;;29.21;36.84
7990;BME280;4040;42.848;23.034;2023-07-28T12:46:49;94701.44;;;29.17;38.64
7990;BME280;4040;42.848;23.034;2023-07-28T12:52:38;94687.56;;;29.54;37.63
7990;BME280;4040;42.848;23.034;2023-07-28T12:58:26;94676.56;;;29.12;38.44
7990;BME280;4040;42.848;23.034;2023-07-28T13:04:17;94684.47;;;29.02;38.62
7990;BME280;4040;42.848;23.034;2023-07-28T13:10:07;94666.41;;;29.14;37.41
7990;BME280;4040;42.848;23.034;2023-07-28T13:15:57;94661.13;;;29.16;38.98
7990;BME280;4040;42.848;23.034;2023-07-28T13:21:47;94673.72;;;29.17;37.36
7990;BME280;4040;42.848;23.034;2023-07-28T13:27:36;94664.47;;;29.09;36.10
7990;BME280;4040;42.848;23.034;2023-07-28T13:33:24;94653.75;;;29.19;37.64
7990;BME280;4040;42.848;23.034;2023-07-28T13:39:15;94659.13;;;28.74;37.46
7990;BME280;4040;42.848;23.034;2023-07-28T13:45:05;94649.06;;;28.71;37.19
7990;BME280;4040;42.848;23.034;2023-07-28T13:50:54;94639.16;;;28.57;36.27
7990;BME280;4040;42.848;23.034;2023-07-28T13:56:44;94656.56;;;28.76;36.58
7990;BME280;4040;42.848;23.034;2023-07-28T14:02:32;94655.06;;;28.75;37.50
7990;BME280;4040;42.848;23.034;2023-07-28T14:08:21;94649.25;;;28.97;36.80
7990;BME280;4040;42.848;23.034;2023-07-28T14:14:11;94650.09;;;28.68;35.14
7990;BME280;4040;42.848;23.034;2023-07-28T14:19:59;94654.72;;;28.60;34.90
7990;BME280;4040;42.848;23.034;2023-07-28T14:25:48;94644.69;;;28.57;34.39
7990;BME280;4040;42.848;23.034;2023-07-28T14:31:38;94645.69;;;28.60;35.15
7990;BME280;4040;42.848;23.034;2023-07-28T14:41:49;94638.63;;;28.35;34.98
7990;BME280;4040;42.848;23.034;2023-07-28T14:47:39;94646.53;;;28.49;33.97
7990;BME280;4040;42.848;23.034;2023-07-28T14:53:28;94638.69;;;28.29;34.20
7990;BME280;4040;42.848;23.034;2023-07-28T14:59:18;94645.19;;;28.32;34.12
7990;BME280;4040;42.848;23.034;2023-07-28T15:05:08;94644.44;;;28.31;34.45
7990;BME280;4040;42.848;23.034;2023-07-28T15:10:57;94621.31;;;28.05;33.96
7990;BME280;4040;42.848;23.034;2023-07-28T15:16:46;94630.78;;;28.15;33.00
7990;BME280;4040;42.848;23.034;2023-07-28T15:22:36;94630.97;;;28.22;33.08
7990;BME280;4040;42.848;23.034;2023-07-28T15:28:25;94639.00;;;27.96;33.97
7990;BME280;4040;42.848;23.034;2023-07-28T15:34:14;94639.28;;;27.93;34.33
7990;BME280;4040;42.848;23.034;2023-07-28T15:44:25;94636.34;;;27.85;33.80
7990;BME280;4040;42.848;23.034;2023-07-28T15:50:14;94649.03;;;27.75;34.41
7990;BME280;4040;42.848;23.034;2023-07-28T15:56:03;94652.00;;;27.77;34.79
7990;BME280;4040;42.848;23.034;2023-07-28T15:58:31;94642.06;;;27.63;35.28
7990;BME280;4040;42.848;23.034;2023-07-28T16:00:59;94649.09;;;27.64;35.37
7990;BME280;4040;42.848;23.034;2023-07-28T16:06:48;94650.66;;;27.54;35.63
7990;BME280;4040;42.848;23.034;2023-07-28T16:12:36;94655.75;;;27.50;36.53
7990;BME280;4040;42.848;23.034;2023-07-28T16:18:26;94653.56;;;27.38;37.66
7990;BME280;4040;42.848;23.034;2023-07-28T16:24:15;94647.91;;;27.19;36.33
7990;BME280;4040;42.848;23.034;2023-07-28T16:30:05;94664.31;;;27.01;36.89
7990;BME280;4040;42.848;23.034;2023-07-28T16:35:55;94662.06;;;26.99;36.51
7990;BME280;4040;42.848;23.034;2023-07-28T16:38:23;94662.63;;;26.87;36.79
7990;BME280;4040;42.848;23.034;2023-07-28T16:44:11;94664.94;;;26.77;37.07
7990;BME280;4040;42.848;23.034;2023-07-28T17:00:13;94670.91;;;26.03;38.58
7990;BME280;4040;42.848;23.034;2023-07-28T17:06:01;94672.41;;;26.04;39.11
7990;BME280;4040;42.848;23.034;2023-07-28T17:11:52;94674.91;;;25.80;40.23
7990;BME280;4040;42.848;23.034;2023-07-28T17:17:42;94682.94;;;25.67;40.07
7990;BME280;4040;42.848;23.034;2023-07-28T17:23:31;94685.19;;;25.57;40.82
7990;BME280;4040;42.848;23.034;2023-07-28T17:29:19;94684.66;;;25.37;41.68
7990;BME280;4040;42.848;23.034;2023-07-28T17:35:10;94683.84;;;25.09;41.56
7990;BME280;4040;42.848;23.034;2023-07-28T17:41:00;94695.44;;;25.24;41.37
7990;BME280;4040;42.848;23.034;2023-07-28T17:46:49;94693.84;;;25.01;41.95
7990;BME280;4040;42.848;23.034;2023-07-28T17:52:39;94704.28;;;24.86;42.52
7990;BME280;4040;42.848;23.034;2023-07-28T17:58:28;94701.25;;;24.73;42.58
7990;BME280;4040;42.848;23.034;2023-07-28T18:04:17;94700.06;;;24.43;43.74
7990;BME280;4040;42.848;23.034;2023-07-28T18:10:08;94696.06;;;24.44;43.85
7990;BME280;4040;42.848;23.034;2023-07-28T18:15:57;94699.34;;;24.42;43.79
7990;BME280;4040;42.848;23.034;2023-07-28T18:21:45;94711.84;;;24.01;47.18
7990;BME280;4040;42.848;23.034;2023-07-28T18:27:35;94721.25;;;23.33;49.98
7990;BME280;4040;42.848;23.034;2023-07-28T18:33:24;94719.25;;;22.48;53.63
7990;BME280;4040;42.848;23.034;2023-07-28T18:39:13;94719.88;;;21.74;58.23
7990;BME280;4040;42.848;23.034;2023-07-28T18:45:03;94714.13;;;21.43;62.34
7990;BME280;4040;42.848;23.034;2023-07-28T18:50:53;94713.16;;;21.46;62.67
7990;BME280;4040;42.848;23.034;2023-07-28T19:00:26;94720.50;;;21.26;64.16
7990;BME280;4040;42.848;23.034;2023-07-28T19:06:15;94731.56;;;21.17;65.92
7990;BME280;4040;42.848;23.034;2023-07-28T19:12:06;94738.25;;;21.01;68.99
7990;BME280;4040;42.848;23.034;2023-07-28T19:17:56;94738.38;;;20.83;73.13
7990;BME280;4040;42.848;23.034;2023-07-28T19:23:45;94715.38;;;20.29;80.03
7990;BME280;4040;42.848;23.034;2023-07-28T19:29:33;94754.56;;;20.26;84.57
7990;BME280;4040;42.848;23.034;2023-07-28T19:35:24;94756.19;;;20.00;88.65
7990;BME280;4040;42.848;23.034;2023-07-28T19:41:12;94749.00;;;19.79;90.81
7990;BME280;4040;42.848;23.034;2023-07-28T19:47:04;94771.16;;;19.72;92.88
7990;BME280;4040;42.848;23.034;2023-07-28T19:52:55;94770.59;;;19.68;93.34
7990;BME280;4040;42.848;23.034;2023-07-28T20:02:45;94781.53;;;19.59;94.73
7990;BME280;4040;42.848;23.034;2023-07-28T20:08:35;94776.09;;;19.50;97.16
7990;BME280;4040;42.848;23.034;2023-07-28T20:14:24;94777.03;;;19.29;100.00
7990;BME280;4040;42.848;23.034;2023-07-28T20:20:13;94778.72;;;18.90;100.00
7990;BME280;4040;42.848;23.034;2023-07-28T20:26:03;94777.00;;;18.57;100.00
7990;BME280;4040;42.848;23.034;2023-07-28T20:31:53;94780.91;;;18.38;100.00
7990;BME280;4040;42.848;23.034;2023-07-28T20:37:42;94779.94;;;18.23;100.00
7990;BME280;4040;42.848;23.034;2023-07-28T20:43:31;94778.16;;;18.29;100.00
7990;BME280;4040;42.848;23.034;2023-07-28T20:49:20;94789.59;;;18.15;100.00
7990;BME280;4040;42.848;23.034;2023-07-28T20:55:09;94697.59;;;17.40;100.00
7990;BME280;4040;42.848;23.034;2023-07-28T21:05:12;94786.75;;;17.79;100.00
7990;BME280;4040;42.848;23.034;2023-07-28T21:11:00;94788.47;;;17.64;100.00
7990;BME280;4040;42.848;23.034;2023-07-28T21:16:49;94774.44;;;17.44;100.00
7990;BME280;4040;42.848;23.034;2023-07-28T21:22:39;94798.94;;;17.44;100.00
7990;BME280;4040;42.848;23.034;2023-07-28T21:28:28;94801.78;;;17.19;100.00
7990;BME280;4040;42.848;23.034;2023-07-28T21:34:17;94799.63;;;17.14;100.00
7990;BME280;4040;42.848;23.034;2023-07-28T21:40:08;94802.44;;;17.02;100.00
7990;BME280;4040;42.848;23.034;2023-07-28T21:45:57;94806.84;;;17.08;100.00
7990;BME280;4040;42.848;23.034;2023-07-28T21:51:46;94808.09;;;16.95;100.00
7990;BME280;4040;42.848;23.034;2023-07-28T21:57:37;94802.91;;;16.88;100.00
7990;BME280;4040;42.848;23.034;2023-07-28T22:08:33;94808.22;;;16.70;100.00
7990;BME280;4040;42.848;23.034;2023-07-28T22:14:22;94804.16;;;16.74;100.00
7990;BME280;4040;42.848;23.034;2023-07-28T22:20:11;94803.31;;;16.65;100.00
7990;BME280;4040;42.848;23.034;2023-07-28T22:26:02;94801.50;;;16.49;100.00
7990;BME280;4040;42.848;23.034;2023-07-28T22:31:51;94808.47;;;16.13;100.00
7990;BME280;4040;42.848;23.034;2023-07-28T22:37:40;94805.34;;;15.89;100.00
7990;BME280;4040;42.848;23.034;2023-07-28T22:43:29;94802.31;;;15.87;100.00
7990;BME280;4040;42.848;23.034;2023-07-28T22:49:18;94796.53;;;15.85;100.00
7990;BME280;4040;42.848;23.034;2023-07-28T22:55:07;94791.22;;;15.94;100.00
7990;BME280;4040;42.848;23.034;2023-07-28T23:00:58;94776.56;;;15.92;100.00
7990;BME280;4040;42.848;23.034;2023-07-28T23:11:08;94787.63;;;15.85;100.00
7990;BME280;4040;42.848;23.034;2023-07-28T23:16:58;94783.63;;;15.64;100.00
7990;BME280;4040;42.848;23.034;2023-07-28T23:22:47;94779.81;;;15.62;100.00
7990;BME280;4040;42.848;23.034;2023-07-28T23:28:36;94781.84;;;15.45;100.00
7990;BME280;4040;42.848;23.034;2023-07-28T23:34:26;94786.50;;;15.32;100.00
7990;BME280;4040;42.848;23.034;2023-07-28T23:40:15;94776.88;;;15.16;100.00
7990;BME280;4040;42.848;23.034;2023-07-28T23:46:03;94772.97;;;15.17;100.00
7990;BME280;4040;42.848;23.034;2023-07-28T23:51:54;94791.97;;;15.17;100.00
7990;BME280;4040;42.848;23.034;2023-07-28T23:57:42;94781.97;;;15.14;100.00
